createdAt,value
2018-05-13T14:17:36.044Z,3268.00
2018-05-13T14:18:36.127Z,3108.00
2018-05-13T14:19:36.071Z,2584.00
2018-05-13T14:28:06.240Z,372.00
2018-05-13T14:29:06.109Z,304.00
2018-05-13T14:30:59.172Z,308.00
2018-05-13T14:31:59.144Z,320.00
2018-05-13T14:32:59.314Z,296.00
2018-05-13T14:33:59.191Z,288.00
2018-05-13T14:34:59.287Z,296.00
2018-05-13T14:35:59.225Z,216.00
2018-05-13T14:36:59.316Z,320.00
2018-05-13T14:37:59.268Z,276.00
2018-05-13T14:38:59.299Z,280.00
2018-05-13T14:39:59.265Z,276.00
2018-05-13T14:40:59.363Z,288.00
2018-05-13T14:41:59.329Z,336.00
2018-05-13T14:42:59.426Z,464.00
2018-05-13T14:43:59.331Z,528.00
2018-05-13T14:44:59.453Z,524.00
2018-05-13T14:45:59.399Z,448.00
2018-05-13T14:46:59.383Z,432.00
2018-05-13T14:47:59.406Z,432.00
2018-05-13T14:48:59.462Z,372.00
2018-05-13T14:49:59.439Z,352.00
2018-05-13T14:50:59.475Z,336.00
2018-05-13T14:51:59.472Z,376.00
2018-05-13T14:52:59.594Z,136.00
2018-05-13T14:53:59.546Z,372.00
2018-05-13T14:54:59.604Z,424.00
2018-05-13T14:55:59.547Z,428.00
2018-05-13T14:56:59.621Z,396.00
2018-05-13T14:57:59.670Z,392.00
2018-05-13T14:58:59.733Z,292.00
2018-05-13T14:59:59.622Z,268.00
2018-05-13T15:01:00.071Z,284.00
2018-05-13T15:01:59.663Z,292.00
2018-05-13T15:02:59.766Z,300.00
2018-05-13T15:03:59.704Z,316.00
2018-05-13T15:04:59.860Z,312.00
2018-05-13T15:05:59.776Z,352.00
2018-05-13T15:06:59.752Z,424.00
2018-05-13T15:07:59.790Z,452.00
2018-05-13T15:08:59.791Z,540.00
2018-05-13T15:10:01.853Z,536.00
2018-05-13T15:10:59.824Z,456.00
2018-05-13T15:11:59.852Z,484.00
2018-05-13T15:12:59.927Z,480.00
2018-05-13T15:13:59.882Z,464.00
2018-05-13T15:14:59.954Z,492.00
2018-05-13T15:15:59.921Z,472.00
2018-05-13T15:17:00.087Z,416.00
2018-05-13T15:17:59.958Z,408.00
2018-05-13T15:19:00.091Z,428.00
2018-05-13T15:19:59.999Z,420.00
2018-05-13T15:21:00.085Z,376.00
2018-05-13T15:22:00.034Z,336.00
2018-05-13T15:23:00.094Z,312.00
2018-05-13T15:24:00.074Z,292.00
2018-05-13T15:25:00.208Z,288.00
2018-05-13T15:26:00.111Z,280.00
2018-05-13T15:27:00.220Z,276.00
2018-05-13T15:28:00.150Z,252.00
2018-05-13T15:29:00.261Z,252.00
2018-05-13T15:30:00.186Z,240.00
2018-05-13T15:31:00.246Z,228.00
2018-05-13T15:32:00.225Z,268.00
2018-05-13T15:33:01.288Z,268.00
2018-05-13T15:34:00.267Z,260.00
2018-05-13T15:35:00.381Z,256.00
2018-05-13T15:36:00.303Z,252.00
2018-05-13T15:37:00.391Z,248.00
2018-05-13T15:38:00.343Z,240.00
2018-05-13T15:39:00.405Z,208.00
2018-05-13T15:40:00.379Z,212.00
2018-05-13T15:41:00.518Z,172.00
2018-05-13T15:42:00.427Z,176.00
2018-05-13T15:43:00.801Z,192.00
2018-05-13T15:44:00.454Z,192.00
2018-05-13T15:45:00.546Z,176.00
2018-05-13T15:46:00.515Z,188.00
2018-05-13T15:47:00.565Z,172.00
2018-05-13T15:48:00.533Z,172.00
2018-05-13T15:49:00.708Z,172.00
2018-05-13T15:50:00.573Z,188.00
2018-05-13T15:51:00.686Z,196.00
2018-05-13T15:52:00.616Z,216.00
2018-05-13T15:53:00.697Z,220.00
2018-05-13T15:54:00.659Z,188.00
2018-05-13T15:55:00.840Z,180.00
2018-05-13T15:56:00.826Z,160.00
2018-05-13T15:57:00.731Z,204.00
2018-05-13T15:58:00.831Z,220.00
2018-05-13T15:59:00.816Z,256.00
2018-05-13T16:00:00.860Z,256.00
2018-05-13T16:01:00.890Z,224.00
2018-05-13T16:02:00.805Z,172.00
2018-05-13T16:03:00.893Z,140.00
2018-05-13T16:04:01.023Z,140.00
2018-05-13T16:05:00.877Z,140.00
2018-05-13T16:06:00.922Z,124.00
2018-05-13T16:07:00.904Z,120.00
2018-05-13T16:08:01.002Z,120.00
2018-05-13T16:09:00.943Z,124.00
2018-05-13T16:10:01.023Z,176.00
2018-05-13T16:11:00.984Z,184.00
2018-05-13T16:12:01.031Z,164.00
2018-05-13T16:13:01.890Z,152.00
2018-05-13T16:14:02.163Z,136.00
2018-05-13T16:15:01.079Z,128.00
2018-05-13T16:16:01.203Z,136.00
2018-05-13T16:17:01.100Z,144.00
2018-05-13T16:18:01.172Z,140.00
2018-05-13T16:19:01.324Z,124.00
2018-05-13T16:20:02.226Z,120.00
2018-05-13T16:21:01.185Z,112.00
2018-05-13T16:22:01.298Z,116.00
2018-05-13T16:23:01.224Z,112.00
2018-05-13T16:24:01.336Z,108.00
2018-05-13T16:25:01.367Z,116.00
2018-05-13T16:26:01.327Z,120.00
2018-05-13T16:27:01.303Z,112.00
2018-05-13T16:28:01.437Z,112.00
2018-05-13T16:29:01.339Z,108.00
2018-05-13T16:30:01.527Z,104.00
2018-05-13T16:31:01.378Z,104.00
2018-05-13T16:32:01.611Z,112.00
2018-05-13T16:33:01.416Z,116.00
2018-05-13T16:34:01.589Z,136.00
2018-05-13T16:35:01.470Z,156.00
2018-05-13T16:36:01.475Z,168.00
2018-05-13T16:37:02.526Z,136.00
2018-05-13T16:38:01.514Z,112.00
2018-05-13T16:39:01.658Z,96.00
2018-05-13T16:40:01.563Z,104.00
2018-05-13T16:41:01.635Z,104.00
2018-05-13T16:42:01.603Z,100.00
2018-05-13T16:43:01.926Z,104.00
2018-05-13T16:44:01.674Z,104.00
2018-05-13T16:45:01.788Z,104.00
2018-05-13T16:46:01.692Z,100.00
2018-05-13T16:47:01.776Z,104.00
2018-05-13T16:48:01.743Z,96.00
2018-05-13T16:49:01.791Z,96.00
2018-05-13T16:50:01.843Z,92.00
2018-05-13T16:51:01.894Z,100.00
2018-05-13T16:52:01.808Z,96.00
2018-05-13T16:53:01.911Z,96.00
2018-05-13T16:54:01.865Z,120.00
2018-05-13T16:55:01.935Z,116.00
2018-05-13T16:56:02.032Z,100.00
2018-05-13T16:57:01.944Z,96.00
2018-05-13T16:58:01.925Z,88.00
2018-05-13T16:59:02.054Z,92.00
2018-05-13T17:00:01.964Z,84.00
2018-05-13T17:01:02.059Z,76.00
2018-05-13T17:02:02.004Z,76.00
2018-05-13T17:03:02.072Z,76.00
2018-05-13T17:04:02.067Z,72.00
2018-05-13T17:05:02.089Z,68.00
2018-05-13T17:06:02.081Z,64.00
2018-05-13T17:07:02.258Z,68.00
2018-05-13T17:08:02.150Z,64.00
2018-05-13T17:09:02.215Z,60.00
2018-05-13T17:10:02.151Z,56.00
2018-05-13T17:11:02.258Z,56.00
2018-05-13T17:12:02.294Z,64.00
2018-05-13T17:13:02.342Z,60.00
2018-05-13T17:14:02.262Z,60.00
2018-05-13T17:15:03.322Z,64.00
2018-05-13T17:16:02.279Z,64.00
2018-05-13T17:17:02.368Z,64.00
2018-05-13T17:18:02.322Z,64.00
2018-05-13T17:19:02.401Z,64.00
2018-05-13T17:20:02.387Z,72.00
2018-05-13T17:21:02.393Z,64.00
2018-05-13T17:22:02.395Z,60.00
2018-05-13T17:23:02.518Z,56.00
2018-05-13T17:24:02.434Z,52.00
2018-05-13T17:25:02.645Z,52.00
2018-05-13T17:26:02.543Z,44.00
2018-05-13T17:27:02.537Z,48.00
2018-05-13T17:28:02.556Z,48.00
2018-05-13T17:29:02.650Z,44.00
2018-05-13T17:30:02.567Z,40.00
2018-05-13T17:31:03.698Z,40.00
2018-05-13T17:32:02.611Z,40.00
2018-05-13T17:33:02.694Z,40.00
2018-05-13T17:34:02.649Z,36.00
2018-05-13T17:35:02.691Z,36.00
2018-05-13T17:36:02.692Z,36.00
2018-05-13T17:37:02.820Z,40.00
2018-05-13T17:38:02.745Z,44.00
2018-05-13T17:39:02.820Z,44.00
2018-05-13T17:40:02.760Z,44.00
2018-05-13T17:41:02.839Z,44.00
2018-05-13T17:42:02.810Z,40.00
2018-05-13T17:43:02.948Z,36.00
2018-05-13T17:44:02.917Z,32.00
2018-05-13T17:45:02.961Z,32.00
2018-05-13T17:46:02.875Z,28.00
2018-05-13T17:47:02.980Z,24.00
2018-05-13T17:48:02.921Z,24.00
2018-05-13T17:49:02.990Z,24.00
2018-05-13T17:50:02.971Z,28.00
2018-05-13T17:51:03.005Z,28.00
2018-05-13T17:52:03.009Z,32.00
2018-05-13T17:53:03.130Z,32.00
2018-05-13T17:54:03.037Z,32.00
2018-05-13T17:55:03.139Z,32.00
2018-05-13T17:56:03.075Z,36.00
2018-05-13T17:57:03.144Z,40.00
2018-05-13T17:58:03.118Z,36.00
2018-05-13T17:59:03.279Z,36.00
2018-05-13T18:00:03.161Z,32.00
2018-05-13T18:01:03.291Z,32.00
2018-05-13T18:02:03.211Z,32.00
2018-05-13T18:03:03.344Z,32.00
2018-05-13T18:04:03.303Z,28.00
2018-05-13T18:05:03.259Z,28.00
2018-05-13T18:06:03.279Z,28.00
2018-05-13T18:07:04.330Z,28.00
2018-05-13T18:08:03.336Z,28.00
2018-05-13T18:09:03.425Z,24.00
2018-05-13T18:10:03.518Z,28.00
2018-05-13T18:11:03.393Z,20.00
2018-05-13T18:12:03.404Z,20.00
2018-05-13T18:13:03.447Z,24.00
2018-05-13T18:14:03.439Z,20.00
2018-05-13T18:15:03.572Z,20.00
2018-05-13T18:16:03.499Z,16.00
2018-05-13T18:17:03.578Z,20.00
2018-05-13T18:18:03.527Z,16.00
2018-05-13T18:19:03.617Z,16.00
2018-05-13T18:20:03.568Z,16.00
2018-05-13T18:21:03.610Z,16.00
2018-05-13T18:22:03.625Z,16.00
2018-05-13T18:23:03.746Z,12.00
2018-05-13T18:24:03.645Z,12.00
2018-05-13T18:25:04.766Z,16.00
2018-05-13T18:26:03.690Z,12.00
2018-05-13T18:27:03.752Z,12.00
2018-05-13T18:28:03.731Z,12.00
2018-05-13T18:29:03.865Z,12.00
2018-05-13T18:30:03.769Z,12.00
2018-05-13T18:31:03.964Z,12.00
2018-05-13T18:32:03.824Z,16.00
2018-05-13T18:33:03.885Z,12.00
2018-05-13T18:34:03.852Z,12.00
2018-05-13T18:35:03.900Z,8.00
2018-05-13T18:36:03.889Z,12.00
2018-05-13T18:37:04.016Z,8.00
2018-05-13T18:38:03.928Z,8.00
2018-05-13T18:39:04.152Z,8.00
2018-05-13T18:40:03.966Z,8.00
2018-05-13T18:41:04.047Z,8.00
2018-05-13T18:42:04.009Z,8.00
2018-05-13T18:43:04.053Z,8.00
2018-05-13T18:44:04.046Z,8.00
2018-05-13T18:45:04.169Z,4.00
2018-05-13T18:46:04.088Z,4.00
2018-05-13T18:47:04.203Z,4.00
2018-05-13T18:48:04.125Z,4.00
2018-05-13T18:49:04.196Z,4.00
2018-05-13T18:50:04.167Z,4.00
2018-05-13T18:51:04.207Z,4.00
2018-05-13T18:52:04.209Z,4.00
2018-05-13T18:53:04.325Z,4.00
2018-05-13T18:54:04.260Z,4.00
2018-05-13T18:55:04.336Z,4.00
2018-05-13T18:56:04.296Z,4.00
2018-05-13T18:57:04.351Z,4.00
2018-05-13T18:58:04.335Z,4.00
2018-05-13T18:59:04.523Z,4.00
2018-05-13T19:00:04.372Z,0.00
2018-05-13T19:01:04.540Z,0.00
2018-05-13T19:02:04.415Z,4.00
2018-05-13T19:03:05.515Z,4.00
2018-05-13T19:04:04.459Z,4.00
2018-05-13T19:05:04.505Z,4.00
2018-05-13T19:06:04.497Z,4.00
2018-05-13T19:07:04.620Z,4.00
2018-05-13T19:08:04.544Z,0.00
2018-05-13T19:09:04.633Z,4.00
2018-05-13T19:10:04.587Z,0.00
2018-05-13T19:11:04.600Z,0.00
2018-05-13T19:12:04.674Z,0.00
2018-05-13T19:13:04.655Z,0.00
2018-05-13T19:14:04.650Z,0.00
2018-05-13T19:15:04.778Z,0.00
2018-05-13T19:16:04.692Z,0.00
2018-05-13T19:17:04.718Z,0.00
2018-05-13T19:18:04.745Z,0.00
2018-05-13T19:19:04.875Z,0.00
2018-05-13T19:20:04.770Z,0.00
2018-05-13T19:21:04.812Z,0.00
2018-05-13T19:22:04.815Z,0.00
2018-05-13T19:23:04.925Z,0.00
2018-05-13T19:24:04.853Z,0.00
2018-05-13T19:25:04.871Z,0.00
2018-05-13T19:26:05.975Z,0.00
2018-05-13T19:27:04.920Z,0.00
2018-05-13T19:28:10.956Z,0.00
2018-05-13T19:29:04.952Z,0.00
2018-05-13T19:30:05.078Z,0.00
2018-05-13T19:31:04.992Z,0.00
2018-05-13T19:32:05.117Z,0.00
2018-05-13T19:33:05.847Z,0.00
2018-05-13T19:34:05.128Z,0.00
2018-05-13T19:35:05.072Z,0.00
2018-05-13T19:36:06.143Z,0.00
2018-05-13T19:37:05.174Z,0.00
2018-05-13T19:38:05.231Z,0.00
2018-05-13T19:39:05.264Z,0.00
2018-05-13T19:40:05.174Z,0.00
2018-05-13T19:41:05.259Z,0.00
2018-05-13T19:42:05.229Z,0.00
2018-05-13T19:43:05.265Z,0.00
2018-05-13T19:44:05.258Z,0.00
2018-05-13T19:45:05.375Z,0.00
2018-05-13T19:46:05.298Z,0.00
2018-05-13T19:47:05.388Z,0.00
2018-05-13T19:48:05.365Z,0.00
2018-05-13T19:49:05.429Z,0.00
2018-05-13T19:50:05.377Z,0.00
2018-05-13T19:51:05.444Z,0.00
2018-05-13T19:52:05.426Z,0.00
2018-05-13T19:53:05.535Z,0.00
2018-05-13T19:54:05.541Z,0.00
2018-05-13T19:55:05.545Z,0.00
2018-05-13T19:56:05.515Z,0.00
2018-05-13T19:57:05.568Z,0.00
2018-05-13T19:58:05.557Z,0.00
2018-05-13T19:59:05.674Z,0.00
2018-05-13T20:00:05.576Z,0.00
2018-05-13T20:01:05.691Z,0.00
2018-05-13T20:02:05.612Z,0.00
2018-05-13T20:03:05.773Z,0.00
2018-05-13T20:04:05.654Z,0.00
2018-05-13T20:05:05.738Z,0.00
2018-05-13T20:06:05.691Z,0.00
2018-05-13T20:07:07.781Z,0.00
2018-05-13T20:08:05.732Z,0.00
2018-05-13T20:09:05.882Z,0.00
2018-05-13T20:10:05.780Z,0.00
2018-05-13T20:11:05.861Z,0.00
2018-05-13T20:12:05.812Z,0.00
2018-05-13T20:13:05.875Z,0.00
2018-05-13T20:14:05.875Z,0.00
2018-05-13T20:15:05.868Z,0.00
2018-05-13T20:16:05.990Z,0.00
2018-05-13T20:17:05.909Z,0.00
2018-05-13T20:18:06.016Z,0.00
2018-05-13T20:19:05.949Z,0.00
2018-05-13T20:20:05.970Z,0.00
2018-05-13T20:21:05.993Z,0.00
2018-05-13T20:22:06.133Z,0.00
2018-05-13T20:23:06.032Z,0.00
2018-05-13T20:24:06.150Z,0.00
2018-05-13T20:25:06.072Z,0.00
2018-05-13T20:26:06.154Z,0.00
2018-05-13T20:27:06.110Z,0.00
2018-05-13T20:28:06.168Z,0.00
2018-05-13T20:29:06.151Z,0.00
2018-05-13T20:30:06.282Z,0.00
2018-05-13T20:31:06.193Z,0.00
2018-05-13T20:32:07.334Z,0.00
2018-05-13T20:33:06.230Z,0.00
2018-05-13T20:34:06.312Z,0.00
2018-05-13T20:35:06.270Z,0.00
2018-05-13T20:36:06.395Z,0.00
2018-05-13T20:37:06.307Z,0.00
2018-05-13T20:38:06.446Z,0.00
2018-05-13T20:39:06.352Z,0.00
2018-05-13T20:40:06.451Z,0.00
2018-05-13T20:41:06.401Z,0.00
2018-05-13T20:42:06.532Z,0.00
2018-05-13T20:43:06.433Z,0.00
2018-05-13T20:44:06.477Z,0.00
2018-05-13T20:45:06.505Z,0.00
2018-05-13T20:46:06.595Z,0.00
2018-05-13T20:47:06.512Z,0.00
2018-05-13T20:48:06.605Z,0.00
2018-05-13T20:49:06.549Z,0.00
2018-05-13T20:50:06.618Z,0.00
2018-05-13T20:51:06.590Z,0.00
2018-05-13T20:52:06.633Z,0.00
2018-05-13T20:53:06.634Z,0.00
2018-05-13T20:54:06.746Z,0.00
2018-05-13T20:55:06.679Z,0.00
2018-05-13T20:56:06.760Z,0.00
2018-05-13T20:57:06.717Z,0.00
2018-05-13T20:58:07.800Z,0.00
2018-05-13T20:59:06.755Z,0.00
2018-05-13T21:00:06.897Z,0.00
2018-05-13T21:01:06.813Z,0.00
2018-05-13T21:02:06.901Z,0.00
2018-05-13T21:03:06.833Z,0.00
2018-05-13T21:04:06.916Z,0.00
2018-05-13T21:05:06.870Z,0.00
2018-05-13T21:06:06.925Z,0.00
2018-05-13T21:07:06.915Z,0.00
2018-05-13T21:08:07.080Z,0.00
2018-05-13T21:09:06.958Z,0.00
2018-05-13T21:10:07.059Z,0.00
2018-05-13T21:11:07.022Z,0.00
2018-05-13T21:12:08.095Z,0.00
2018-05-13T21:13:07.030Z,0.00
2018-05-13T21:14:07.081Z,0.00
2018-05-13T21:15:07.072Z,0.00
2018-05-13T21:16:07.350Z,0.00
2018-05-13T21:17:07.172Z,0.00
2018-05-13T21:18:07.210Z,0.00
2018-05-13T21:19:07.186Z,0.00
2018-05-13T21:20:07.327Z,0.00
2018-05-13T21:21:07.205Z,0.00
2018-05-13T21:22:07.341Z,0.00
2018-05-13T21:23:07.247Z,0.00
2018-05-13T21:24:07.361Z,0.00
2018-05-13T21:25:07.288Z,0.00
2018-05-13T21:26:07.372Z,0.00
2018-05-13T21:27:07.712Z,0.00
2018-05-13T21:28:07.401Z,0.00
2018-05-13T21:29:07.354Z,0.00
2018-05-13T21:30:07.532Z,0.00
2018-05-13T21:31:07.397Z,0.00
2018-05-13T21:32:07.512Z,0.00
2018-05-13T21:33:07.436Z,0.00
2018-05-13T21:34:07.523Z,0.00
2018-05-13T21:35:07.470Z,0.00
2018-05-13T21:36:07.534Z,0.00
2018-05-13T21:37:07.512Z,0.00
2018-05-13T21:38:07.653Z,0.00
2018-05-13T21:39:07.553Z,0.00
2018-05-13T21:40:07.664Z,0.00
2018-05-13T21:41:07.729Z,0.00
2018-05-13T21:42:07.678Z,0.00
2018-05-13T21:43:07.643Z,0.00
2018-05-13T21:44:07.688Z,0.00
2018-05-13T21:45:07.673Z,0.00
2018-05-13T21:46:07.800Z,0.00
2018-05-13T21:47:07.789Z,0.00
2018-05-13T21:48:07.812Z,0.00
2018-05-13T21:49:07.754Z,0.00
2018-05-13T21:50:07.827Z,0.00
2018-05-13T21:51:07.810Z,0.00
2018-05-13T21:52:07.841Z,0.00
2018-05-13T21:53:07.831Z,0.00
2018-05-13T21:54:07.957Z,0.00
2018-05-13T21:55:07.888Z,0.00
2018-05-13T21:56:07.974Z,0.00
2018-05-13T21:57:07.913Z,0.00
2018-05-13T21:58:07.995Z,0.00
2018-05-13T21:59:07.953Z,0.00
2018-05-13T22:00:07.996Z,0.00
2018-05-13T22:01:07.988Z,0.00
2018-05-13T22:02:08.111Z,0.00
2018-05-13T22:03:08.032Z,0.00
2018-05-13T22:04:08.123Z,0.00
2018-05-13T22:05:08.069Z,0.00
2018-05-13T22:06:08.140Z,0.00
2018-05-13T22:07:08.181Z,0.00
2018-05-13T22:08:08.268Z,0.00
2018-05-13T22:09:08.152Z,0.00
2018-05-13T22:10:08.266Z,0.00
2018-05-13T22:11:08.204Z,0.00
2018-05-13T22:12:08.281Z,0.00
2018-05-13T22:13:08.226Z,0.00
2018-05-13T22:14:08.290Z,0.00
2018-05-13T22:15:08.276Z,0.00
2018-05-13T22:16:08.408Z,0.00
2018-05-13T22:17:08.309Z,0.00
2018-05-13T22:18:08.422Z,0.00
2018-05-13T22:19:08.379Z,0.00
2018-05-13T22:20:08.429Z,0.00
2018-05-13T22:21:08.384Z,0.00
2018-05-13T22:22:08.443Z,0.00
2018-05-13T22:23:08.421Z,0.00
2018-05-13T22:24:08.559Z,0.00
2018-05-13T22:25:08.468Z,0.00
2018-05-13T22:26:08.620Z,0.00
2018-05-13T22:27:08.499Z,0.00
2018-05-13T22:28:08.588Z,0.00
2018-05-13T22:29:08.540Z,0.00
2018-05-13T22:30:08.598Z,0.00
2018-05-13T22:31:08.581Z,0.00
2018-05-13T22:32:08.715Z,0.00
2018-05-13T22:33:08.626Z,0.00
2018-05-13T22:34:08.644Z,0.00
2018-05-13T22:35:08.731Z,0.00
2018-05-13T22:36:08.677Z,0.00
2018-05-13T22:37:08.745Z,0.00
2018-05-13T22:38:08.720Z,0.00
2018-05-13T22:39:08.760Z,0.00
2018-05-13T22:40:08.764Z,0.00
2018-05-13T22:41:08.876Z,0.00
2018-05-13T22:42:08.803Z,0.00
2018-05-13T22:43:08.889Z,0.00
2018-05-13T22:44:08.856Z,0.00
2018-05-13T22:45:08.900Z,0.00
2018-05-13T22:46:08.875Z,0.00
2018-05-13T22:47:08.914Z,0.00
2018-05-13T22:48:08.976Z,0.00
2018-05-13T22:49:09.032Z,0.00
2018-05-13T22:50:08.954Z,0.00
2018-05-13T22:51:09.041Z,0.00
2018-05-13T22:52:09.010Z,0.00
2018-05-13T22:53:09.060Z,0.00
2018-05-13T22:54:09.034Z,0.00
2018-05-13T22:55:09.079Z,0.00
2018-05-13T22:56:09.075Z,0.00
2018-05-13T22:57:09.187Z,0.00
2018-05-13T22:58:09.109Z,0.00
2018-05-13T22:59:09.199Z,0.00
2018-05-13T23:00:09.148Z,0.00
2018-05-13T23:01:09.213Z,0.00
2018-05-13T23:02:09.201Z,0.00
2018-05-13T23:03:09.328Z,0.00
2018-05-13T23:04:09.224Z,0.00
2018-05-13T23:05:09.342Z,0.00
2018-05-13T23:06:09.266Z,0.00
2018-05-13T23:07:10.375Z,0.00
2018-05-13T23:08:09.325Z,0.00
2018-05-13T23:09:09.381Z,0.00
2018-05-13T23:10:09.344Z,0.00
2018-05-13T23:11:09.479Z,0.00
2018-05-13T23:12:09.382Z,0.00
2018-05-13T23:13:09.491Z,0.00
2018-05-13T23:14:09.422Z,0.00
2018-05-13T23:15:09.511Z,0.00
2018-05-13T23:16:09.459Z,0.00
2018-05-13T23:17:09.568Z,0.00
2018-05-13T23:18:09.493Z,0.00
2018-05-13T23:19:09.635Z,0.00
2018-05-13T23:20:09.538Z,0.00
2018-05-13T23:21:09.647Z,0.00
2018-05-13T23:22:09.575Z,0.00
2018-05-13T23:23:09.661Z,0.00
2018-05-13T23:24:09.612Z,0.00
2018-05-13T23:25:09.676Z,0.00
2018-05-13T23:26:09.647Z,0.00
2018-05-13T23:27:09.788Z,0.00
2018-05-13T23:28:09.691Z,0.00
2018-05-13T23:29:09.803Z,0.00
2018-05-13T23:30:09.741Z,0.00
2018-05-13T23:31:09.818Z,0.00
2018-05-13T23:32:09.793Z,0.00
2018-05-13T23:33:09.830Z,0.00
2018-05-13T23:34:09.817Z,0.00
2018-05-13T23:35:10.868Z,0.00
2018-05-13T23:36:09.841Z,0.00
2018-05-13T23:37:09.958Z,0.00
2018-05-13T23:38:09.889Z,0.00
2018-05-13T23:39:09.968Z,0.00
2018-05-13T23:40:09.929Z,0.00
2018-05-13T23:41:10.060Z,0.00
2018-05-13T23:42:09.963Z,0.00
2018-05-13T23:43:10.098Z,0.00
2018-05-13T23:44:10.002Z,0.00
2018-05-13T23:45:10.112Z,0.00
2018-05-13T23:46:10.041Z,0.00
2018-05-13T23:47:10.122Z,0.00
2018-05-13T23:48:10.072Z,0.00
2018-05-13T23:49:10.137Z,0.00
2018-05-13T23:50:10.111Z,0.00
2018-05-13T23:51:10.258Z,0.00
2018-05-13T23:52:10.157Z,0.00
2018-05-13T23:53:10.267Z,0.00
2018-05-13T23:54:10.203Z,0.00
2018-05-13T23:55:10.280Z,0.00
2018-05-13T23:56:10.224Z,0.00
2018-05-13T23:57:10.291Z,0.00
2018-05-13T23:58:10.268Z,0.00
2018-05-13T23:59:10.413Z,0.00
